createdAt,value
2023-02-11T00:01:44.312Z,52.33
2023-02-11T00:04:46.146Z,47.10
2023-02-11T00:07:48.106Z,49.47
2023-02-11T00:10:58.307Z,48.10
2023-02-11T00:14:02.744Z,49.55
2023-02-11T00:17:04.644Z,46.53
2023-02-11T00:20:08.294Z,58.03
2023-02-11T00:23:10.688Z,56.92
2023-02-11T00:26:17.833Z,57.05
2023-02-11T00:29:20.345Z,50.47
2023-02-11T00:32:22.241Z,56.47
2023-02-11T00:35:25.334Z,55.47
2023-02-11T00:38:27.419Z,53.13
2023-02-11T00:41:29.918Z,49.10
2023-02-11T00:44:34.384Z,44.58
2023-02-11T00:47:36.418Z,51.70
2023-02-11T00:50:38.416Z,34.85
2023-02-11T00:53:40.578Z,41.33
2023-02-11T00:56:42.468Z,25.35
2023-02-11T00:59:44.797Z,34.85
2023-02-11T01:02:46.679Z,21.77
2023-02-11T01:05:48.994Z,31.13
2023-02-11T01:08:51.281Z,45.63
2023-02-11T01:11:53.310Z,52.45
2023-02-11T01:14:55.258Z,30.67
2023-02-11T01:17:57.350Z,34.53
2023-02-11T01:20:59.243Z,35.72
2023-02-11T01:24:01.125Z,46.85
2023-02-11T01:27:03.501Z,35.28
2023-02-11T01:30:08.159Z,48.65
2023-02-11T01:33:10.146Z,37.07
2023-02-11T01:36:13.096Z,50.75
2023-02-11T01:39:15.037Z,44.15
2023-02-11T01:42:19.666Z,54.38
2023-02-11T01:45:43.020Z,52.17
2023-02-11T01:48:51.219Z,43.10
2023-02-11T01:52:03.670Z,51.17
2023-02-11T01:55:29.363Z,49.30
2023-02-11T01:58:32.737Z,45.88
2023-02-11T02:01:38.060Z,52.22
2023-02-11T02:04:51.780Z,53.90
2023-02-11T02:08:03.281Z,32.00
2023-02-11T02:11:07.452Z,52.28
2023-02-11T02:14:12.035Z,54.80
2023-02-11T02:17:38.966Z,60.58
2023-02-11T02:20:59.419Z,53.60
2023-02-11T02:24:22.267Z,56.88
2023-02-11T02:27:53.371Z,57.15
2023-02-11T02:30:55.342Z,64.93
2023-02-11T02:34:21.494Z,60.25
2023-02-11T02:38:05.192Z,52.27
2023-02-11T02:41:10.958Z,55.80
2023-02-11T02:44:12.826Z,36.65
2023-02-11T02:47:14.834Z,61.17
2023-02-11T02:50:25.024Z,59.00
2023-02-11T02:53:42.060Z,58.40
2023-02-11T02:56:43.820Z,36.25
2023-02-11T02:59:48.280Z,72.82
2023-02-11T03:03:06.424Z,62.03
2023-02-11T03:06:15.620Z,63.25
2023-02-11T03:09:25.395Z,47.80
2023-02-11T03:12:31.174Z,60.17
2023-02-11T03:15:43.659Z,60.55
2023-02-11T03:18:52.736Z,67.78
2023-02-11T03:21:56.099Z,40.80
2023-02-11T03:24:58.344Z,60.47
2023-02-11T03:28:10.535Z,44.03
2023-02-11T03:31:22.728Z,29.98
2023-02-11T03:34:36.435Z,41.72
2023-02-11T03:37:43.903Z,29.45
2023-02-11T03:40:46.329Z,39.47
2023-02-11T03:44:03.711Z,54.78
2023-02-11T03:47:09.189Z,39.25
2023-02-11T03:50:14.933Z,63.33
2023-02-11T03:53:18.173Z,58.00
2023-02-11T03:56:26.328Z,42.50
2023-02-11T03:59:29.061Z,35.75
2023-02-11T04:02:34.570Z,19.42
2023-02-11T04:05:37.179Z,30.63
2023-02-11T04:08:39.091Z,18.10
2023-02-11T04:11:41.022Z,67.20
2023-02-11T04:14:42.875Z,58.92
2023-02-11T04:17:44.730Z,65.45
2023-02-11T04:20:46.675Z,25.13
2023-02-11T04:23:48.795Z,70.18
2023-02-11T04:26:50.736Z,40.53
2023-02-11T04:29:52.728Z,70.63
2023-02-11T04:32:54.665Z,71.55
2023-02-11T04:35:56.551Z,71.43
2023-02-11T04:38:59.254Z,72.60
2023-02-11T04:42:01.107Z,68.70
2023-02-11T04:45:03.267Z,58.47
2023-02-11T04:48:09.022Z,75.68
2023-02-11T04:51:11.587Z,51.40
2023-02-11T04:54:13.467Z,54.95
2023-02-11T04:57:15.599Z,57.67
2023-02-11T05:00:17.656Z,64.97
2023-02-11T05:03:19.605Z,73.82
2023-02-11T05:06:21.788Z,70.65
2023-02-11T05:09:23.616Z,37.63
2023-02-11T05:12:25.622Z,51.43
2023-02-11T05:15:28.175Z,69.60
2023-02-11T05:18:30.272Z,74.45
2023-02-11T05:21:32.282Z,65.40
2023-02-11T05:24:34.771Z,74.32
2023-02-11T05:27:36.625Z,65.23
2023-02-11T05:30:38.870Z,49.88
2023-02-11T05:33:41.530Z,57.78
2023-02-11T05:36:43.458Z,62.75
2023-02-11T05:39:45.379Z,52.50
2023-02-11T05:42:47.287Z,51.90
2023-02-11T05:45:49.509Z,28.17
2023-02-11T05:48:51.920Z,48.45
2023-02-11T05:51:53.825Z,57.25
2023-02-11T05:54:55.782Z,61.03
2023-02-11T05:57:57.762Z,52.27
2023-02-11T06:00:59.598Z,41.05
2023-02-11T06:04:01.637Z,49.42
2023-02-11T06:07:04.147Z,61.15
2023-02-11T06:10:06.621Z,60.58
2023-02-11T06:13:08.554Z,57.97
2023-02-11T06:16:10.473Z,65.35
2023-02-11T06:19:13.139Z,63.90
2023-02-11T06:22:15.382Z,66.10
2023-02-11T06:25:17.436Z,49.60
2023-02-11T06:28:19.750Z,41.33
2023-02-11T06:31:22.111Z,53.10
2023-02-11T06:34:24.134Z,56.83
2023-02-11T06:37:25.961Z,51.05
2023-02-11T06:40:27.807Z,61.72
2023-02-11T06:43:29.658Z,39.37
2023-02-11T06:46:31.909Z,37.53
2023-02-11T06:49:33.844Z,26.85
2023-02-11T06:52:35.662Z,61.08
2023-02-11T06:55:37.578Z,48.08
2023-02-11T06:58:39.758Z,67.90
2023-02-11T07:01:41.711Z,55.67
2023-02-11T07:04:44.062Z,56.55
2023-02-11T07:07:46.010Z,63.33
2023-02-11T07:10:47.975Z,62.85
2023-02-11T07:13:51.387Z,53.80
2023-02-11T07:16:53.255Z,61.00
2023-02-11T07:19:55.083Z,49.60
2023-02-11T07:22:57.044Z,67.97
2023-02-11T07:26:03.669Z,56.45
2023-02-11T07:29:05.790Z,69.37
2023-02-11T07:32:07.674Z,65.38
2023-02-11T07:35:09.562Z,62.53
2023-02-11T07:38:11.387Z,72.22
2023-02-11T07:41:16.013Z,64.20
2023-02-11T07:44:17.866Z,62.33
2023-02-11T07:47:19.879Z,51.38
2023-02-11T07:50:21.998Z,143.25
2023-02-11T07:53:24.070Z,90.07
2023-02-11T07:56:26.387Z,62.70
2023-02-11T07:59:28.722Z,28.07
2023-02-11T08:02:30.583Z,62.80
2023-02-11T08:05:32.425Z,49.00
2023-02-11T08:08:34.612Z,42.42
2023-02-11T08:11:37.005Z,59.05
2023-02-11T08:14:39.036Z,36.73
2023-02-11T08:17:41.007Z,36.03
2023-02-11T08:20:43.018Z,57.42
2023-02-11T08:23:46.428Z,39.45
2023-02-11T08:26:48.769Z,52.08
2023-02-11T08:29:50.690Z,55.03
2023-02-11T08:32:52.776Z,40.38
2023-02-11T08:35:54.624Z,46.63
2023-02-11T08:39:16.084Z,48.13
2023-02-11T08:42:21.979Z,60.35
2023-02-11T08:45:23.918Z,33.27
2023-02-11T08:48:26.274Z,41.05
2023-02-11T08:51:33.040Z,62.05
2023-02-11T08:54:35.035Z,47.22
2023-02-11T08:57:36.985Z,55.17
2023-02-11T09:00:38.943Z,45.90
2023-02-11T09:03:41.183Z,70.38
2023-02-11T09:06:43.240Z,71.50
2023-02-11T09:09:45.248Z,64.93
2023-02-11T09:12:47.171Z,80.43
2023-02-11T09:15:49.040Z,44.33
2023-02-11T09:18:53.669Z,54.67
2023-02-11T09:21:55.959Z,52.85
2023-02-11T09:24:57.926Z,55.08
2023-02-11T09:27:59.847Z,58.15
2023-02-11T09:31:09.247Z,62.63
2023-02-11T09:34:11.870Z,57.20
2023-02-11T09:37:13.953Z,56.90
2023-02-11T09:40:16.880Z,38.03
2023-02-11T09:43:22.720Z,63.83
2023-02-11T09:46:27.688Z,39.17
2023-02-11T09:49:44.383Z,65.22
2023-02-11T09:53:07.614Z,63.10
2023-02-11T09:56:14.836Z,44.08
2023-02-11T09:59:17.682Z,72.28
2023-02-11T10:02:24.127Z,54.40
2023-02-11T10:05:52.541Z,57.95
2023-02-11T10:09:11.857Z,54.00
2023-02-11T10:12:37.547Z,44.55
2023-02-11T10:16:08.403Z,42.95
2023-02-11T10:19:19.314Z,71.97
2023-02-11T10:22:43.139Z,57.63
2023-02-11T10:25:49.116Z,40.42
2023-02-11T10:28:54.371Z,55.92
2023-02-11T10:31:58.558Z,78.38
2023-02-11T10:35:04.367Z,61.40
2023-02-11T10:38:06.330Z,56.85
2023-02-11T10:41:15.315Z,79.65
2023-02-11T10:44:30.136Z,68.32
2023-02-11T10:47:39.669Z,83.50
2023-02-11T10:50:41.535Z,78.23
2023-02-11T10:53:43.725Z,58.55
2023-02-11T10:56:50.224Z,76.30
2023-02-11T10:59:58.363Z,78.47
2023-02-11T11:03:01.945Z,75.13
2023-02-11T11:06:09.328Z,83.10
2023-02-11T11:09:28.839Z,65.95
2023-02-11T11:12:35.092Z,73.90
2023-02-11T11:15:37.028Z,45.33
2023-02-11T11:18:40.597Z,42.55
2023-02-11T12:07:32.735Z,48.78
2023-02-11T12:10:55.362Z,57.63
2023-02-11T12:14:40.161Z,54.13
2023-02-11T12:17:51.091Z,71.78
2023-02-11T12:21:30.326Z,68.15
2023-02-11T12:24:42.557Z,53.15
2023-02-11T12:28:13.562Z,73.97
2023-02-11T12:31:24.277Z,59.00
2023-02-11T12:34:50.666Z,75.63
2023-02-11T12:38:08.381Z,79.80
2023-02-11T12:41:46.344Z,89.30
2023-02-11T12:45:12.856Z,77.78
2023-02-11T12:48:45.393Z,74.60
2023-02-11T12:51:50.377Z,83.85
2023-02-11T12:55:09.459Z,92.10
2023-02-11T12:58:35.644Z,64.70
2023-02-11T13:01:45.191Z,79.40
2023-02-11T13:04:54.257Z,73.13
2023-02-11T13:08:04.624Z,76.97
2023-02-11T13:11:17.278Z,56.88
2023-02-11T13:14:24.525Z,57.25
2023-02-11T13:17:34.951Z,60.72
2023-02-11T13:21:03.581Z,62.27
2023-02-11T13:24:13.480Z,60.92
2023-02-11T13:27:41.510Z,61.47
2023-02-11T13:30:51.410Z,63.53
2023-02-11T13:33:53.824Z,55.90
2023-02-11T13:36:57.414Z,60.90
2023-02-11T13:40:21.224Z,63.50
2023-02-11T13:43:28.423Z,56.63
2023-02-11T13:46:54.167Z,60.65
2023-02-11T13:49:57.013Z,54.33
2023-02-11T13:53:01.278Z,51.13
2023-02-11T13:56:11.413Z,41.42
2023-02-11T13:59:25.872Z,59.30
2023-02-11T14:02:56.045Z,42.47
2023-02-11T14:06:28.804Z,67.82
2023-02-11T14:09:37.064Z,56.93
2023-02-11T14:12:39.348Z,56.38
2023-02-11T14:15:41.209Z,56.90
2023-02-11T14:18:49.352Z,59.45
2023-02-11T14:21:53.666Z,39.85
2023-02-11T14:25:04.726Z,51.93
2023-02-11T14:28:22.372Z,58.97
2023-02-11T14:31:36.106Z,55.22
2023-02-11T14:34:46.688Z,54.38
2023-02-11T14:37:55.860Z,50.30
2023-02-11T14:41:10.854Z,42.77
2023-02-11T14:44:27.926Z,55.55
2023-02-11T14:47:46.553Z,54.53
2023-02-11T14:51:10.653Z,55.40
2023-02-11T14:54:17.362Z,55.47
2023-02-11T14:57:20.556Z,46.60
2023-02-11T15:00:23.117Z,57.30
2023-02-11T15:03:31.993Z,53.38
2023-02-11T15:06:39.974Z,49.17
2023-02-11T15:09:45.712Z,64.43
2023-02-11T15:12:49.358Z,60.87
2023-02-11T15:15:56.294Z,49.15
2023-02-11T15:19:02.821Z,55.28
2023-02-11T15:22:07.331Z,59.50
2023-02-11T15:25:15.027Z,70.72
2023-02-11T15:28:28.993Z,68.90
2023-02-11T15:31:33.867Z,61.80
2023-02-11T15:34:37.553Z,81.43
2023-02-11T15:37:40.723Z,73.00
2023-02-11T15:40:55.956Z,29.83
2023-02-11T15:43:57.918Z,40.83
2023-02-11T15:47:00.367Z,61.83
2023-02-11T15:50:03.097Z,48.15
2023-02-11T15:53:24.340Z,69.82
2023-02-11T15:56:30.589Z,50.58
2023-02-11T15:59:39.322Z,54.60
2023-02-11T16:02:46.675Z,67.47
2023-02-11T16:05:48.958Z,75.82
2023-02-11T16:09:06.301Z,83.45
2023-02-11T16:12:27.207Z,69.63
2023-02-11T16:15:50.926Z,60.07
2023-02-11T16:19:04.851Z,50.70
2023-02-11T16:22:10.603Z,55.13
2023-02-11T16:25:20.759Z,57.15
2023-02-11T16:28:23.004Z,44.95
2023-02-11T16:31:33.530Z,55.53
2023-02-11T16:34:36.547Z,56.38
2023-02-11T16:37:38.624Z,46.88
2023-02-11T16:40:41.148Z,49.10
2023-02-11T16:43:43.263Z,60.35
2023-02-11T16:46:45.670Z,53.23
2023-02-11T16:49:47.997Z,51.58
2023-02-11T16:52:52.299Z,62.42
2023-02-11T16:55:54.203Z,68.20
2023-02-11T16:58:56.564Z,75.18
2023-02-11T17:01:58.545Z,72.07
2023-02-11T17:05:03.445Z,92.13
2023-02-11T17:08:06.483Z,73.97
2023-02-11T17:11:08.615Z,67.78
2023-02-11T17:14:10.762Z,65.65
2023-02-11T17:17:13.910Z,68.07
2023-02-11T17:20:16.427Z,73.38
2023-02-11T17:23:18.491Z,68.13
2023-02-11T17:26:20.643Z,64.18
2023-02-11T17:29:24.533Z,65.07
2023-02-11T17:32:26.677Z,61.23
2023-02-11T17:35:28.847Z,60.88
2023-02-11T17:38:30.880Z,68.22
2023-02-11T17:41:33.302Z,56.13
2023-02-11T17:44:35.769Z,66.15
2023-02-11T17:47:37.997Z,59.00
2023-02-11T17:50:40.079Z,67.75
2023-02-11T17:53:42.230Z,56.90
2023-02-11T17:56:45.438Z,71.40
2023-02-11T17:59:48.032Z,65.20
2023-02-11T18:02:50.377Z,55.17
2023-02-11T18:09:12.072Z,65.45
2023-02-11T18:12:14.345Z,70.95
2023-02-11T18:15:16.608Z,69.40
2023-02-11T18:18:18.432Z,69.90
2023-02-11T18:21:22.355Z,72.82
2023-02-11T18:24:24.479Z,72.55
2023-02-11T18:27:28.108Z,79.18
2023-02-11T18:30:33.913Z,74.38
2023-02-11T18:33:37.587Z,78.13
2023-02-11T18:36:39.846Z,72.35
2023-02-11T18:39:42.909Z,75.03
2023-02-11T18:42:46.273Z,88.68
2023-02-11T18:45:50.489Z,90.43
2023-02-11T18:48:56.001Z,80.47
2023-02-11T18:51:58.868Z,79.93
2023-02-11T18:55:01.006Z,82.32
2023-02-11T18:58:03.207Z,82.05
2023-02-11T19:01:27.564Z,81.93
2023-02-11T19:04:29.841Z,87.73
2023-02-11T19:07:32.587Z,79.18
2023-02-11T19:10:34.840Z,89.35
2023-02-11T19:13:37.421Z,89.43
2023-02-11T19:16:41.909Z,88.30
2023-02-11T19:19:44.059Z,90.60
2023-02-11T19:22:46.170Z,99.10
2023-02-11T19:25:48.607Z,98.57
2023-02-11T19:28:50.735Z,87.22
2023-02-11T19:31:53.043Z,86.90
2023-02-11T19:34:55.276Z,91.40
2023-02-11T19:37:57.411Z,59.50
2023-02-11T19:40:59.508Z,90.45
2023-02-11T19:44:02.868Z,74.57
2023-02-11T19:47:06.964Z,89.55
2023-02-11T19:50:09.618Z,84.07
2023-02-11T19:53:11.749Z,80.53
2023-02-11T19:56:15.502Z,85.70
2023-02-11T19:59:17.711Z,84.10
2023-02-11T20:02:20.794Z,81.72
2023-02-11T20:05:22.991Z,79.83
2023-02-11T20:08:24.953Z,85.40
2023-02-11T20:11:28.899Z,84.30
2023-02-11T20:14:31.684Z,80.18
2023-02-11T20:17:33.931Z,80.10
2023-02-11T20:20:41.304Z,97.53
2023-02-11T20:23:46.506Z,104.10
2023-02-11T20:26:49.349Z,98.28
2023-02-11T20:29:51.540Z,89.78
2023-02-11T20:32:53.450Z,102.82
2023-02-11T20:35:57.997Z,89.33
2023-02-11T20:39:01.208Z,101.85
2023-02-11T20:42:03.810Z,99.13
2023-02-11T20:45:06.082Z,92.65
2023-02-11T20:48:08.304Z,87.95
2023-02-11T20:51:17.535Z,85.67
2023-02-11T20:54:21.007Z,90.43
2023-02-11T20:57:23.147Z,93.68
2023-02-11T21:00:25.642Z,84.38
2023-02-11T21:03:27.771Z,92.97
2023-02-11T21:06:39.987Z,94.70
2023-02-11T21:09:42.371Z,85.53
2023-02-11T21:12:44.540Z,96.60
2023-02-11T21:15:46.407Z,90.35
2023-02-11T21:18:52.465Z,95.00
2023-02-11T21:21:57.273Z,88.70
2023-02-11T21:25:01.056Z,89.50
2023-02-11T21:28:03.616Z,89.03
2023-02-11T21:31:05.817Z,86.03
2023-02-11T21:34:08.620Z,93.82
2023-02-11T21:37:10.670Z,88.77
2023-02-11T21:40:14.830Z,95.65
2023-02-11T21:43:16.946Z,94.22
2023-02-11T21:46:19.846Z,96.85
2023-02-11T21:49:21.836Z,88.57
2023-02-11T21:52:24.171Z,93.63
2023-02-11T21:55:26.279Z,97.15
2023-02-11T21:58:28.322Z,86.95
2023-02-11T22:01:35.233Z,86.97
2023-02-11T22:04:37.168Z,91.60
2023-02-11T22:07:39.086Z,87.00
2023-02-11T22:10:41.076Z,90.85
2023-02-11T22:13:43.187Z,98.28
2023-02-11T22:16:47.561Z,103.80
2023-02-11T22:19:50.042Z,108.13
2023-02-11T22:22:51.966Z,100.40
2023-02-11T22:25:54.103Z,101.53
2023-02-11T22:28:56.924Z,104.80
2023-02-11T22:31:59.398Z,100.68
2023-02-11T22:35:01.368Z,108.25
2023-02-11T22:38:04.504Z,99.80
2023-02-11T22:41:09.177Z,100.25
2023-02-11T22:44:12.014Z,99.75
2023-02-11T22:47:13.911Z,93.05
2023-02-11T22:50:16.190Z,94.53
2023-02-11T22:53:18.514Z,91.87
2023-02-11T22:56:20.664Z,99.18
2023-02-11T22:59:22.837Z,96.95
2023-02-11T23:02:24.837Z,97.05
2023-02-11T23:05:27.391Z,103.13
2023-02-11T23:08:30.967Z,94.77
2023-02-11T23:11:33.794Z,84.13
2023-02-11T23:14:35.954Z,89.78
2023-02-11T23:17:37.827Z,86.95
2023-02-11T23:20:42.842Z,77.70
2023-02-11T23:23:45.237Z,78.00
2023-02-11T23:26:47.128Z,98.45
2023-02-11T23:29:49.585Z,94.03
2023-02-11T23:32:52.750Z,83.80
2023-02-11T23:35:54.936Z,84.47
2023-02-11T23:38:56.990Z,81.50
2023-02-11T23:41:59.606Z,85.97
2023-02-11T23:45:01.896Z,82.50
2023-02-11T23:48:10.349Z,84.35
2023-02-11T23:51:12.240Z,76.95
2023-02-11T23:54:14.799Z,81.47
2023-02-11T23:57:16.942Z,81.85
